Terminal Aerodrome Forecast
Issued by NWS Louisville, KY

Home | Current Version | Previous Version | Text Only | Print | Product List | Glossary On
Versions: 1 2 3 4 5 6 7 8 9 10 11 12 13 14 15 16 17 18 19 20 21 22 23 24 25 26
000
FTUS43 KLMK 302137 AAB
TAFLEX
TAF AMD
KLEX 302137Z 3022/3118 29010KT 2SM TSRA BR BKN035CB
     FM302230 VRB06KT P6SM SCT040
     FM310800 22003KT 4SM BR SCT250
     FM311300 23004KT P6SM BKN015
     FM311500 25006KT P6SM BKN025=

USA.gov is the U.S. government's official web portal to all federal, state and local government web resources and services.